Time;durP1;ratioP1;P1;durP2;ratioP2;P2;SDS_P1;SDS_P2;PMS_P1;PMS_P2;Temp;Humidity;BMP_temperature;BMP_pressure;BME280_temperature;BME280_humidity;BME280_pressure;Samples;Min_cycle;Max_cycle;Signal;HPM_P1;HPM_P2
2022/09/23 00:00:29;;;;;;;3.72;3.30;;;18.60;47.50;;;;;;5066270;28;45331;-72
2022/09/23 00:02:56;;;;;;;4.28;3.03;;;18.50;47.50;;;;;;5066532;28;45199;-72
2022/09/23 00:05:23;;;;;;;3.08;2.67;;;18.50;47.50;;;;;;5066659;28;45273;-72
2022/09/23 00:07:49;;;;;;;3.90;3.10;;;18.50;47.60;;;;;;5066190;28;46671;-72
2022/09/23 00:10:16;;;;;;;3.97;3.22;;;18.50;47.60;;;;;;5065913;28;45322;-72
2022/09/23 00:12:44;;;;;;;3.05;2.80;;;18.50;47.50;;;;;;5066375;28;45233;-72
2022/09/23 00:15:11;;;;;;;3.15;2.72;;;18.50;47.60;;;;;;5066391;28;45227;-72
2022/09/23 00:17:39;;;;;;;3.72;2.42;;;18.50;47.60;;;;;;5066118;28;45171;-72
2022/09/23 00:20:08;;;;;;;4.35;3.10;;;18.50;47.50;;;;;;5065955;28;45309;-72
2022/09/23 00:22:35;;;;;;;3.50;2.97;;;18.40;47.50;;;;;;5065497;28;45345;-72
2022/09/23 00:25:02;;;;;;;4.25;2.72;;;18.40;47.50;;;;;;5066236;28;45432;-72
2022/09/23 00:27:29;;;;;;;3.08;2.75;;;18.40;47.70;;;;;;5063370;28;46107;-72
2022/09/23 00:29:57;;;;;;;3.05;2.65;;;18.40;47.50;;;;;;5065836;28;45440;-72
2022/09/23 00:32:24;;;;;;;2.95;2.53;;;18.40;47.50;;;;;;5063517;28;45352;-72
2022/09/23 00:34:51;;;;;;;3.63;3.00;;;18.30;47.60;;;;;;5066109;28;45264;-72
2022/09/23 00:37:18;;;;;;;2.55;2.35;;;18.30;47.50;;;;;;5065848;28;46413;-72
2022/09/23 00:39:45;;;;;;;3.85;2.90;;;18.30;47.60;;;;;;5065856;28;45179;-73
2022/09/23 00:42:15;;;;;;;3.67;2.70;;;18.30;47.70;;;;;;5066382;28;45313;-73
2022/09/23 00:44:44;;;;;;;4.07;3.08;;;18.30;47.60;;;;;;5066170;28;45301;-73
2022/09/23 00:47:16;;;;;;;2.83;2.63;;;18.30;47.50;;;;;;5065772;28;47334;-73
2022/09/23 00:49:43;;;;;;;4.07;2.75;;;18.30;47.60;;;;;;5065931;28;45216;-73
2022/09/23 00:52:13;;;;;;;3.63;2.85;;;18.30;47.60;;;;;;5065847;28;45192;-73
2022/09/23 00:54:40;;;;;;;3.95;2.83;;;18.30;47.50;;;;;;5066201;28;45371;-73
2022/09/23 00:57:07;;;;;;;2.58;2.35;;;18.20;47.60;;;;;;5065611;28;45216;-73
2022/09/23 00:59:34;;;;;;;3.33;2.67;;;18.20;47.60;;;;;;5065757;28;45265;-73
2022/09/23 01:02:00;;;;;;;3.03;2.45;;;18.20;47.70;;;;;;5065995;28;45543;-72
2022/09/23 01:04:29;;;;;;;2.83;2.45;;;18.20;47.60;;;;;;5065768;28;45228;-73
2022/09/23 01:06:55;;;;;;;3.15;2.85;;;18.20;47.60;;;;;;5065488;28;46664;-72
2022/09/23 01:09:22;;;;;;;3.50;2.50;;;18.20;47.60;;;;;;5068177;28;45201;-72
2022/09/23 01:11:51;;;;;;;2.55;2.35;;;18.20;47.70;;;;;;5084377;28;45201;-72
2022/09/23 01:14:30;;;;;;;2.53;2.33;;;18.10;47.70;;;;;;5089637;28;45237;-72
2022/09/23 01:16:59;;;;;;;2.65;2.25;;;18.10;47.70;;;;;;5089260;28;46802;-72
2022/09/23 01:19:41;;;;;;;2.88;2.53;;;18.10;47.50;;;;;;5086571;28;45245;-72
2022/09/23 01:22:09;;;;;;;2.80;2.30;;;18.10;47.70;;;;;;5089230;28;45225;-73
2022/09/23 01:24:46;;;;;;;2.42;2.22;;;18.10;47.80;;;;;;5089566;28;45321;-72
2022/09/23 01:27:32;;;;;;;3.08;2.10;;;18.10;47.80;;;;;;5089075;28;45809;-73
2022/09/23 01:30:07;;;;;;;2.53;2.30;;;18.10;47.80;;;;;;5088250;28;45245;-73
2022/09/23 01:32:41;;;;;;;2.53;2.33;;;18.10;47.70;;;;;;5089058;28;45320;-73
2022/09/23 01:35:09;;;;;;;3.38;2.47;;;18.10;47.70;;;;;;5086018;28;45634;-73
2022/09/23 01:37:40;;;;;;;2.53;2.33;;;18.10;47.60;;;;;;5068511;28;45552;-72
2022/09/23 01:40:10;;;;;;;2.78;2.30;;;18.10;47.50;;;;;;5068517;28;45260;-73
2022/09/23 01:42:39;;;;;;;3.53;2.22;;;18.10;47.60;;;;;;5068736;28;45275;-73
2022/09/23 01:45:09;;;;;;;3.10;2.40;;;18.00;47.70;;;;;;5068731;28;45460;-72
2022/09/23 01:47:39;;;;;;;2.42;2.00;;;18.00;47.60;;;;;;5068302;28;45705;-72
2022/09/23 01:50:55;;;;;;;2.60;2.38;;;18.00;47.60;;;;;;5068299;28;45380;-72
2022/09/23 01:52:56;;;;;;;2.50;2.30;;;18.00;47.60;;;;;;5068129;28;45410;-72
2022/09/23 01:55:25;;;;;;;2.83;2.20;;;18.00;47.50;;;;;;5068570;28;45426;-72
2022/09/23 01:57:55;;;;;;;2.67;2.20;;;17.90;47.70;;;;;;5068022;28;45368;-72
2022/09/23 02:00:21;;;;;;;1.95;1.75;;;17.90;47.60;;;;;;5068210;28;45196;-72
2022/09/23 02:02:51;;;;;;;4.15;2.20;;;17.90;47.60;;;;;;5068288;28;45364;-72
2022/09/23 02:05:19;;;;;;;4.03;2.60;;;17.90;47.60;;;;;;5068263;28;45443;-73
2022/09/23 02:07:47;;;;;;;2.67;2.22;;;17.90;47.70;;;;;;5067892;28;46613;-73
2022/09/23 02:10:15;;;;;;;2.40;1.90;;;17.90;47.80;;;;;;5067753;28;45352;-73
2022/09/23 02:12:42;;;;;;;2.47;2.13;;;17.90;47.70;;;;;;5068304;28;45285;-73
2022/09/23 02:15:11;;;;;;;2.53;2.30;;;17.80;47.80;;;;;;5068257;28;45594;-72
2022/09/23 02:17:39;;;;;;;2.72;1.95;;;17.80;47.80;;;;;;5067976;28;45485;-72
2022/09/23 02:20:08;;;;;;;3.03;2.20;;;17.80;47.70;;;;;;5066881;28;45200;-72
2022/09/23 02:22:39;;;;;;;2.20;1.98;;;17.80;47.70;;;;;;5068143;28;45257;-72
2022/09/23 02:25:06;;;;;;;2.00;1.77;;;17.80;47.60;;;;;;5068154;28;45492;-72
2022/09/23 02:27:36;;;;;;;1.98;1.88;;;17.80;47.70;;;;;;5067916;28;46346;-72
2022/09/23 02:30:07;;;;;;;2.97;2.08;;;17.80;47.70;;;;;;5067764;28;45236;-72
2022/09/23 02:32:36;;;;;;;2.20;1.90;;;17.70;47.60;;;;;;5068055;28;45322;-72
2022/09/23 02:35:09;;;;;;;2.20;2.00;;;17.70;47.70;;;;;;5067441;28;45205;-72
2022/09/23 02:37:39;;;;;;;2.20;1.88;;;17.70;47.70;;;;;;5067202;28;45495;-72
2022/09/23 02:40:12;;;;;;;1.67;1.55;;;17.70;47.60;;;;;;5067545;28;45214;-73
2022/09/23 02:42:45;;;;;;;2.20;2.00;;;17.70;47.70;;;;;;5067745;28;45276;-71
2022/09/23 02:45:11;;;;;;;2.20;2.00;;;17.70;47.60;;;;;;5067877;28;45343;-72
2022/09/23 02:47:39;;;;;;;2.10;1.95;;;17.60;47.70;;;;;;5067405;28;46376;-72
2022/09/23 02:50:09;;;;;;;2.13;1.73;;;17.60;47.60;;;;;;5068348;28;45303;-72
2022/09/23 02:52:36;;;;;;;1.77;1.67;;;17.60;47.70;;;;;;5068940;28;45344;-72
2022/09/23 02:55:04;;;;;;;2.40;1.85;;;17.60;47.70;;;;;;5071500;28;45246;-72
2022/09/23 02:57:31;;;;;;;1.85;1.75;;;17.60;47.70;;;;;;5069464;28;46743;-72
2022/09/23 02:59:58;;;;;;;2.22;1.90;;;17.60;47.60;;;;;;5068718;28;45170;-72
2022/09/23 03:02:33;;;;;;;1.70;1.60;;;17.60;47.60;;;;;;5068700;28;45168;-72
2022/09/23 03:05:04;;;;;;;1.88;1.60;;;17.60;47.60;;;;;;5068641;28;45380;-72
2022/09/23 03:07:36;;;;;;;2.75;1.77;;;17.50;47.50;;;;;;5068120;28;45403;-72
2022/09/23 03:10:08;;;;;;;1.70;1.42;;;17.50;48.20;;;;;;5067765;28;45278;-72
2022/09/23 03:12:38;;;;;;;1.67;1.58;;;17.50;47.70;;;;;;5068109;28;45276;-72
2022/09/23 03:15:12;;;;;;;1.73;1.60;;;17.50;47.70;;;;;;5067739;28;45219;-72
2022/09/23 03:17:43;;;;;;;1.70;1.60;;;17.50;47.80;;;;;;5066984;28;46438;-72
2022/09/23 03:20:11;;;;;;;2.17;1.98;;;17.50;47.80;;;;;;5066932;28;45377;-72
2022/09/23 03:22:40;;;;;;;1.80;1.70;;;17.50;47.70;;;;;;5066960;28;45333;-72
2022/09/23 03:25:09;;;;;;;1.38;1.27;;;17.50;47.80;;;;;;5067211;28;45114;-72
2022/09/23 03:27:36;;;;;;;1.67;1.58;;;17.50;47.70;;;;;;5067044;28;45384;-72
2022/09/23 03:30:03;;;;;;;1.80;1.70;;;17.40;47.80;;;;;;5066664;28;45294;-72
2022/09/23 03:32:30;;;;;;;1.73;1.63;;;17.40;47.80;;;;;;5066379;28;45237;-72
2022/09/23 03:34:58;;;;;;;1.85;1.50;;;17.50;47.80;;;;;;5067017;28;45175;-71
2022/09/23 03:37:29;;;;;;;1.85;1.55;;;17.50;47.80;;;;;;5066505;28;45318;-71
2022/09/23 03:40:01;;;;;;;1.95;1.40;;;17.40;47.70;;;;;;5066147;28;45256;-72
2022/09/23 03:42:28;;;;;;;1.52;1.42;;;17.40;47.50;;;;;;5066429;28;45283;-72
2022/09/23 03:44:56;;;;;;;2.50;1.20;;;17.40;47.80;;;;;;5066734;28;45193;-72
2022/09/23 03:47:24;;;;;;;1.58;1.48;;;17.40;47.80;;;;;;5066655;28;45489;-72
2022/09/23 03:49:50;;;;;;;1.77;1.63;;;17.40;47.70;;;;;;5066530;28;45323;-72
2022/09/23 03:52:17;;;;;;;1.50;1.38;;;17.40;47.70;;;;;;5066587;28;45287;-72
2022/09/23 03:54:44;;;;;;;1.92;1.58;;;17.30;47.70;;;;;;5066819;28;45213;-72
2022/09/23 03:57:13;;;;;;;1.50;1.40;;;17.30;47.70;;;;;;5066211;28;46640;-72
2022/09/23 03:59:39;;;;;;;1.95;1.50;;;17.30;47.60;;;;;;5066174;28;45322;-72
2022/09/23 04:02:06;;;;;;;1.58;1.48;;;17.30;47.70;;;;;;5066431;28;45301;-72
2022/09/23 04:04:33;;;;;;;1.63;1.48;;;17.30;47.80;;;;;;5066741;28;45423;-72
2022/09/23 04:07:00;;;;;;;1.50;1.40;;;17.30;47.70;;;;;;5066151;28;45484;-72
2022/09/23 04:09:27;;;;;;;2.53;1.70;;;17.30;47.70;;;;;;5066195;28;45183;-72
2022/09/23 04:11:54;;;;;;;1.80;1.50;;;17.30;47.70;;;;;;5066165;28;45487;-73
2022/09/23 04:14:22;;;;;;;1.40;1.30;;;17.30;47.80;;;;;;5066468;28;45235;-73
2022/09/23 04:16:49;;;;;;;2.53;1.50;;;17.30;47.70;;;;;;5066086;28;46597;-72
2022/09/23 04:19:16;;;;;;;1.65;1.55;;;17.30;47.80;;;;;;5066006;28;45221;-72
2022/09/23 04:21:43;;;;;;;2.15;1.58;;;17.30;47.70;;;;;;5066345;28;45139;-72
2022/09/23 04:24:10;;;;;;;3.08;1.42;;;17.30;47.70;;;;;;5066020;28;45273;-72
2022/09/23 04:26:37;;;;;;;1.95;1.58;;;17.20;47.70;;;;;;5065579;28;45661;-73
2022/09/23 04:29:04;;;;;;;1.70;1.40;;;17.20;48.30;;;;;;5066237;28;45221;-74
2022/09/23 04:31:32;;;;;;;1.48;1.38;;;17.20;47.80;;;;;;5065950;28;45256;-73
2022/09/23 04:33:59;;;;;;;1.58;1.48;;;17.20;47.70;;;;;;5066355;28;45353;-72
2022/09/23 04:36:28;;;;;;;1.67;1.58;;;17.20;47.70;;;;;;5065931;28;45302;-73
2022/09/23 04:38:55;;;;;;;1.70;1.58;;;17.20;47.70;;;;;;5066154;28;45213;-73
2022/09/23 04:41:22;;;;;;;1.52;1.42;;;17.10;47.80;;;;;;5066182;28;45141;-72
2022/09/23 04:43:48;;;;;;;2.30;1.65;;;17.20;47.90;;;;;;5068419;28;45396;-72
2022/09/23 04:46:15;;;;;;;1.60;1.50;;;17.10;47.70;;;;;;5069417;28;45350;-71
2022/09/23 04:48:43;;;;;;;1.40;1.30;;;17.10;47.80;;;;;;5069608;28;45343;-72
2022/09/23 04:51:11;;;;;;;1.88;1.23;;;17.10;47.90;;;;;;5069502;28;45272;-72
2022/09/23 04:53:39;;;;;;;1.38;1.27;;;17.20;47.90;;;;;;5069558;28;45479;-72
2022/09/23 04:56:08;;;;;;;1.30;1.20;;;17.10;47.80;;;;;;5069276;28;46339;-72
2022/09/23 04:58:35;;;;;;;1.50;1.40;;;17.10;47.90;;;;;;5069284;28;45190;-72
2022/09/23 05:01:09;;;;;;;1.48;1.38;;;17.10;47.90;;;;;;5069218;28;45302;-72
2022/09/23 05:03:35;;;;;;;1.42;1.27;;;17.10;47.90;;;;;;5069473;28;45245;-72
2022/09/23 05:06:04;;;;;;;1.50;1.40;;;17.10;47.90;;;;;;5069124;28;45218;-72
2022/09/23 05:08:30;;;;;;;1.33;1.27;;;17.10;47.80;;;;;;5069096;28;45241;-72
2022/09/23 05:10:58;;;;;;;2.95;1.70;;;17.10;47.90;;;;;;5068924;28;45294;-72
2022/09/23 05:13:25;;;;;;;1.25;1.17;;;17.10;47.90;;;;;;5069005;28;45477;-71
2022/09/23 05:15:57;;;;;;;1.30;1.20;;;17.10;47.90;;;;;;5069086;28;46761;-72
2022/09/23 05:18:24;;;;;;;2.35;1.40;;;17.10;47.90;;;;;;5068900;28;45187;-72
2022/09/23 05:20:54;;;;;;;1.60;1.50;;;17.10;47.90;;;;;;5069115;28;45296;-73
2022/09/23 05:23:22;;;;;;;1.48;1.38;;;17.10;47.90;;;;;;5069187;28;45360;-72
2022/09/23 05:25:49;;;;;;;1.30;1.20;;;17.10;47.90;;;;;;5068843;28;47446;-72
2022/09/23 05:28:18;;;;;;;1.50;1.35;;;17.10;47.80;;;;;;5068642;28;45208;-72
2022/09/23 05:30:45;;;;;;;1.33;1.23;;;17.10;47.90;;;;;;5068812;28;45301;-72
2022/09/23 05:33:13;;;;;;;1.40;1.30;;;17.10;47.80;;;;;;5068999;28;45410;-72
2022/09/23 05:35:40;;;;;;;1.88;1.30;;;17.10;47.80;;;;;;5068721;28;47552;-72
2022/09/23 05:38:07;;;;;;;3.30;1.50;;;17.10;47.80;;;;;;5068710;28;45203;-72
2022/09/23 05:40:35;;;;;;;1.42;1.33;;;17.10;47.80;;;;;;5068887;28;45229;-73
2022/09/23 05:43:02;;;;;;;1.58;1.20;;;17.10;47.80;;;;;;5066352;28;45303;-72
2022/09/23 05:45:30;;;;;;;1.33;1.20;;;17.10;47.80;;;;;;5068650;28;46633;-72
2022/09/23 05:47:57;;;;;;;1.38;1.27;;;17.10;47.80;;;;;;5068599;28;45250;-72
2022/09/23 05:50:24;;;;;;;2.38;1.27;;;17.10;47.70;;;;;;5068714;28;45292;-72
2022/09/23 05:52:51;;;;;;;1.25;1.15;;;17.10;47.70;;;;;;5068919;28;45317;-72
2022/09/23 05:55:18;;;;;;;1.40;1.30;;;17.10;47.80;;;;;;5067819;28;46403;-72
2022/09/23 05:57:46;;;;;;;1.25;1.15;;;17.10;47.90;;;;;;5068370;28;45292;-72
2022/09/23 06:00:14;;;;;;;2.10;1.42;;;17.10;47.90;;;;;;5068212;28;45178;-72
2022/09/23 06:02:41;;;;;;;1.42;1.33;;;17.10;47.90;;;;;;5068899;28;45294;-72
2022/09/23 06:05:08;;;;;;;1.40;1.15;;;17.10;47.90;;;;;;5068410;28;46408;-72
2022/09/23 06:07:35;;;;;;;1.25;1.15;;;17.10;47.80;;;;;;5068167;28;45263;-73
2022/09/23 06:10:01;;;;;;;1.27;1.17;;;17.10;47.80;;;;;;5069132;28;45201;-72
2022/09/23 06:12:28;;;;;;;1.20;1.13;;;17.10;47.80;;;;;;5088843;28;45257;-72
2022/09/23 06:14:57;;;;;;;1.48;1.38;;;17.10;47.70;;;;;;5088098;28;48341;-72
2022/09/23 06:17:23;;;;;;;3.63;1.40;;;17.10;47.80;;;;;;5088598;28;45324;-72
2022/09/23 06:19:50;;;;;;;1.50;1.40;;;17.10;47.70;;;;;;5088336;28;45182;-72
2022/09/23 06:22:17;;;;;;;1.30;1.20;;;17.10;47.70;;;;;;5085839;28;45163;-72
2022/09/23 06:24:44;;;;;;;1.48;1.35;;;17.10;47.70;;;;;;5087967;28;45429;-72
2022/09/23 06:27:11;;;;;;;1.20;1.17;;;17.10;47.80;;;;;;5088075;28;45316;-72
2022/09/23 06:29:37;;;;;;;1.40;1.30;;;17.10;47.80;;;;;;5088640;28;45236;-72
2022/09/23 06:32:06;;;;;;;1.48;1.38;;;17.10;47.70;;;;;;5088424;28;45337;-72
2022/09/23 06:34:33;;;;;;;1.40;1.30;;;17.10;47.80;;;;;;5081927;28;45131;-72
2022/09/23 06:36:59;;;;;;;6.95;1.88;;;17.10;47.80;;;;;;5067748;28;45174;-72
2022/09/23 06:39:26;;;;;;;1.88;1.60;;;17.00;47.80;;;;;;5067779;28;45269;-72
2022/09/23 06:41:53;;;;;;;1.98;1.50;;;17.10;47.80;;;;;;5067917;28;45458;-72
2022/09/23 06:44:20;;;;;;;1.58;1.48;;;17.10;47.90;;;;;;5066992;28;46645;-72
2022/09/23 06:46:47;;;;;;;1.45;1.35;;;17.10;47.80;;;;;;5067455;28;45210;-72
2022/09/23 06:49:15;;;;;;;1.77;1.45;;;17.10;47.90;;;;;;5067566;28;45239;-72
2022/09/23 06:51:42;;;;;;;1.83;1.50;;;17.10;47.80;;;;;;5067608;28;45360;-72
2022/09/23 06:54:09;;;;;;;2.75;1.77;;;17.10;47.80;;;;;;5067518;28;46373;-72
2022/09/23 06:56:37;;;;;;;1.77;1.38;;;17.00;47.80;;;;;;5067429;28;45171;-72
2022/09/23 06:59:04;;;;;;;2.38;1.52;;;17.10;47.90;;;;;;5067600;28;45139;-72
2022/09/23 07:01:30;;;;;;;1.50;1.38;;;17.10;47.90;;;;;;5067687;28;45472;-72
2022/09/23 07:03:58;;;;;;;2.67;1.60;;;17.10;47.90;;;;;;5067236;28;47301;-72
2022/09/23 07:06:26;;;;;;;1.50;1.40;;;17.10;47.80;;;;;;5066449;28;45257;-72
2022/09/23 07:08:53;;;;;;;2.33;1.60;;;17.10;47.90;;;;;;5067163;28;45220;-72
2022/09/23 07:11:22;;;;;;;2.65;1.50;;;17.10;47.90;;;;;;5064756;28;45495;-72
2022/09/23 07:13:49;;;;;;;1.98;1.50;;;17.10;47.90;;;;;;5064338;28;45556;-72
2022/09/23 07:16:15;;;;;;;2.10;1.70;;;17.10;47.80;;;;;;5061545;28;45254;-73
2022/09/23 07:18:43;;;;;;;1.85;1.50;;;17.10;47.80;;;;;;5048779;28;45364;-73
2022/09/23 07:21:11;;;;;;;1.88;1.60;;;17.10;47.80;;;;;;5066352;28;45249;-73
2022/09/23 07:23:40;;;;;;;1.30;1.20;;;17.10;47.80;;;;;;5064415;28;47789;-73
2022/09/23 07:26:07;;;;;;;1.60;1.50;;;17.10;47.80;;;;;;5066200;28;45261;-72
2022/09/23 07:28:35;;;;;;;3.83;1.45;;;17.10;47.80;;;;;;5066417;28;45173;-72
2022/09/23 07:31:05;;;;;;;1.60;1.50;;;17.10;47.80;;;;;;5063990;28;45381;-72
2022/09/23 07:33:33;;;;;;;1.75;1.65;;;17.20;47.80;;;;;;5067626;28;45772;-73
2022/09/23 07:36:03;;;;;;;2.97;1.92;;;17.20;47.80;;;;;;5069691;28;45352;-72
2022/09/23 07:38:30;;;;;;;1.77;1.67;;;17.10;47.80;;;;;;5066436;28;45449;-72
2022/09/23 07:41:02;;;;;;;2.17;1.80;;;17.10;47.80;;;;;;5064972;28;45408;-73
2022/09/23 07:43:31;;;;;;;1.60;1.40;;;17.20;47.90;;;;;;5067471;28;46694;-72
2022/09/23 07:45:58;;;;;;;1.70;1.50;;;17.20;47.90;;;;;;5064719;28;45531;-72
2022/09/23 07:48:25;;;;;;;1.92;1.67;;;17.20;47.80;;;;;;5065003;28;45260;-72
2022/09/23 07:50:52;;;;;;;2.35;1.70;;;17.20;47.90;;;;;;5063171;28;45506;-73
2022/09/23 07:53:19;;;;;;;2.65;1.70;;;17.20;47.90;;;;;;5064273;28;45435;-72
2022/09/23 07:55:52;;;;;;;1.58;1.48;;;17.20;47.90;;;;;;5064124;28;45294;-73
2022/09/23 07:58:20;;;;;;;1.52;1.42;;;17.20;47.90;;;;;;5065186;28;45444;-73
2022/09/23 08:00:47;;;;;;;1.80;1.70;;;17.20;47.90;;;;;;5063370;28;45345;-70
2022/09/23 08:03:14;;;;;;;2.17;1.83;;;17.20;48.10;;;;;;5064109;28;46396;-73
2022/09/23 08:05:41;;;;;;;3.15;1.88;;;17.30;48.10;;;;;;5064833;28;45254;-70
2022/09/23 08:08:08;;;;;;;3.25;2.10;;;17.30;48.10;;;;;;5065449;28;45341;-73
2022/09/23 08:10:35;;;;;;;2.83;1.63;;;17.30;48.20;;;;;;5063526;28;45542;-73
2022/09/23 08:13:02;;;;;;;2.00;1.80;;;17.40;48.10;;;;;;5059535;28;45202;-72
2022/09/23 08:15:30;;;;;;;1.98;1.77;;;17.40;48.00;;;;;;5066614;28;45211;-72
2022/09/23 08:18:00;;;;;;;2.05;1.83;;;17.40;48.00;;;;;;5060202;28;45297;-72
2022/09/23 08:20:46;;;;;;;2.30;1.70;;;17.40;48.00;;;;;;5059688;28;45376;-72
2022/09/23 08:23:13;;;;;;;3.60;1.92;;;17.40;48.10;;;;;;5065738;28;45350;-72
2022/09/23 08:25:40;;;;;;;3.28;1.60;;;17.40;48.00;;;;;;5065564;28;45211;-73
2022/09/23 08:28:07;;;;;;;4.82;1.73;;;17.40;48.20;;;;;;5065995;28;45316;-72
2022/09/23 08:30:36;;;;;;;2.75;1.77;;;17.40;48.10;;;;;;5066273;28;45304;-72
2022/09/23 08:33:02;;;;;;;1.92;1.73;;;17.40;48.80;;;;;;5062175;28;45389;-72
2022/09/23 08:35:29;;;;;;;2.03;1.83;;;17.40;48.10;;;;;;5065966;28;45215;-72
2022/09/23 08:37:56;;;;;;;3.47;2.08;;;17.40;48.10;;;;;;5065949;28;45262;-73
2022/09/23 08:40:23;;;;;;;1.92;1.70;;;17.40;48.20;;;;;;5065905;28;45339;-72
2022/09/23 08:42:50;;;;;;;4.03;2.03;;;17.40;48.10;;;;;;5049084;28;46782;-72
2022/09/23 08:45:19;;;;;;;1.83;1.70;;;17.40;48.20;;;;;;5065485;28;45202;-72
2022/09/23 08:47:49;;;;;;;2.10;1.50;;;17.40;48.20;;;;;;5066014;28;45253;-72
2022/09/23 08:50:18;;;;;;;2.33;1.58;;;17.50;48.20;;;;;;5065857;28;45365;-72
2022/09/23 08:52:48;;;;;;;2.03;1.63;;;17.50;48.10;;;;;;5065381;28;46407;-72
2022/09/23 08:55:15;;;;;;;1.77;1.67;;;17.50;47.90;;;;;;5065579;28;45369;-72
2022/09/23 08:57:45;;;;;;;4.07;1.77;;;17.60;47.80;;;;;;5064158;28;45178;-72
2022/09/23 09:00:15;;;;;;;2.53;1.90;;;17.60;47.90;;;;;;5065768;28;45574;-72
2022/09/23 09:02:42;;;;;;;1.75;1.65;;;17.60;47.80;;;;;;5065329;28;46374;-72
2022/09/23 09:05:10;;;;;;;2.60;1.65;;;17.70;47.80;;;;;;5065605;28;45159;-72
2022/09/23 09:07:38;;;;;;;2.42;1.70;;;17.70;47.70;;;;;;5065765;28;45334;-72
2022/09/23 09:10:10;;;;;;;2.72;1.73;;;17.70;47.70;;;;;;5065499;28;45373;-72
2022/09/23 09:12:40;;;;;;;2.10;1.80;;;17.70;47.60;;;;;;5061307;28;45428;-74
2022/09/23 09:15:11;;;;;;;1.85;1.73;;;17.80;47.70;;;;;;5064883;28;45331;-72
2022/09/23 09:17:43;;;;;;;1.70;1.60;;;17.80;47.60;;;;;;5065611;28;45320;-72
2022/09/23 09:20:23;;;;;;;4.20;1.70;;;17.80;47.60;;;;;;5065182;28;45450;-72
2022/09/23 09:22:53;;;;;;;1.60;1.50;;;17.80;47.70;;;;;;5048565;28;45410;-72
2022/09/23 09:25:42;;;;;;;5.05;2.00;;;17.90;47.70;;;;;;5061914;28;45207;-71
2022/09/23 09:28:20;;;;;;;1.83;1.55;;;17.90;47.70;;;;;;5065167;28;45353;-73
2022/09/23 09:30:50;;;;;;;1.77;1.60;;;17.90;47.60;;;;;;5068778;28;45326;-72
2022/09/23 09:33:17;;;;;;;2.60;1.70;;;17.90;47.60;;;;;;5068321;28;45218;-72
2022/09/23 09:36:17;;;;;;;2.42;1.60;;;18.00;47.60;;;;;;5063622;28;45477;-72
2022/09/23 09:38:44;;;;;;;3.05;1.77;;;18.00;47.60;;;;;;5042309;28;45339;-73
2022/09/23 09:41:13;;;;;;;1.77;1.67;;;18.00;47.50;;;;;;5068488;28;45202;-73
2022/09/23 09:43:40;;;;;;;1.70;1.60;;;18.10;47.50;;;;;;5066088;28;45499;-72
2022/09/23 09:46:13;;;;;;;1.58;1.45;;;18.10;47.60;;;;;;5065854;28;45360;-73
2022/09/23 09:48:44;;;;;;;2.38;1.40;;;18.10;47.40;;;;;;5058477;28;45439;-73
2022/09/23 09:51:20;;;;;;;2.05;1.70;;;18.10;47.60;;;;;;5058168;28;45199;-73
2022/09/23 09:53:47;;;;;;;1.88;1.60;;;18.20;47.60;;;;;;5058395;28;45680;-73
2022/09/23 09:56:15;;;;;;;3.55;1.77;;;18.20;47.70;;;;;;5068955;28;45281;-72
2022/09/23 09:58:45;;;;;;;1.75;1.65;;;18.20;47.90;;;;;;5069707;28;45460;-73
2022/09/23 10:01:22;;;;;;;2.17;1.70;;;18.20;47.70;;;;;;5074191;28;45257;-73
2022/09/23 10:03:49;;;;;;;1.73;1.60;;;18.30;48.10;;;;;;5067286;28;46406;-73
2022/09/23 10:06:20;;;;;;;3.08;1.80;;;18.30;48.20;;;;;;5068430;28;45413;-73
2022/09/23 10:08:49;;;;;;;1.52;1.42;;;18.40;48.40;;;;;;5068542;28;45282;-72
2022/09/23 10:11:17;;;;;;;2.10;1.90;;;18.30;48.40;;;;;;5068319;28;45377;-73
2022/09/23 10:14:00;;;;;;;2.30;2.10;;;18.40;48.40;;;;;;5068004;28;45291;-73
2022/09/23 10:16:27;;;;;;;1.45;1.35;;;18.40;48.50;;;;;;5057400;28;45251;-73
2022/09/23 10:18:55;;;;;;;3.20;1.77;;;18.50;48.60;;;;;;5068507;28;45443;-73
2022/09/23 10:21:24;;;;;;;1.67;1.58;;;18.50;48.50;;;;;;5068534;28;45396;-73
2022/09/23 10:23:53;;;;;;;1.92;1.55;;;18.60;48.50;;;;;;5051775;28;46361;-74
2022/09/23 10:26:26;;;;;;;1.50;1.40;;;18.60;48.80;;;;;;5068025;28;45193;-74
2022/09/23 10:28:54;;;;;;;1.75;1.65;;;18.60;48.70;;;;;;5068080;28;45194;-73
2022/09/23 10:31:24;;;;;;;1.80;1.50;;;18.70;48.50;;;;;;5068575;28;45321;-73
2022/09/23 10:33:53;;;;;;;2.83;1.85;;;18.70;48.70;;;;;;5051342;28;46916;-73
2022/09/23 10:36:20;;;;;;;4.97;2.00;;;18.80;48.80;;;;;;5065636;28;45345;-73
2022/09/23 10:38:50;;;;;;;2.65;1.75;;;18.80;48.70;;;;;;5057751;28;45301;-73
2022/09/23 10:47:13;;;;;;;2.60;1.63;;;19.00;48.90;;;;;;5063250;28;45435;-74
2022/09/23 10:49:56;;;;;;;1.60;1.42;;;19.00;48.90;;;;;;5068334;28;45256;-74
2022/09/23 10:52:40;;;;;;;3.10;1.60;;;19.10;49.10;;;;;;5066794;28;45379;-74
2022/09/23 10:55:15;;;;;;;1.40;1.30;;;19.20;48.90;;;;;;5068443;28;45466;-74
2022/09/23 10:57:51;;;;;;;4.22;1.50;;;19.20;48.70;;;;;;5050843;28;45329;-75
2022/09/23 11:00:23;;;;;;;2.35;1.85;;;19.20;49.00;;;;;;5054546;28;45308;-74
2022/09/23 11:03:09;;;;;;;2.05;1.48;;;19.30;48.90;;;;;;5068497;28;45320;-74
2022/09/23 11:05:41;;;;;;;1.52;1.42;;;19.40;48.90;;;;;;5067304;28;45442;-74
2022/09/23 11:08:20;;;;;;;1.70;1.60;;;19.40;48.80;;;;;;5067640;28;45184;-73
2022/09/23 11:10:59;;;;;;;1.83;1.58;;;19.50;48.80;;;;;;5066871;28;45455;-74
2022/09/23 11:13:35;;;;;;;2.00;1.80;;;19.50;48.70;;;;;;5067600;28;45386;-73
2022/09/23 11:16:05;;;;;;;3.13;1.60;;;19.60;48.70;;;;;;5051795;28;46645;-74
2022/09/23 11:18:55;;;;;;;1.92;1.80;;;19.60;48.50;;;;;;5067621;28;45389;-74
2022/09/23 11:21:57;;;;;;;2.75;1.77;;;19.70;48.60;;;;;;5065383;28;45324;-74
2022/09/23 11:24:50;;;;;;;1.60;1.50;;;19.70;48.70;;;;;;5065494;28;45483;-73
2022/09/23 11:27:25;;;;;;;1.70;1.60;;;19.80;48.60;;;;;;5055328;28;45538;-74
2022/09/23 11:29:59;;;;;;;1.58;1.48;;;19.80;48.60;;;;;;5059834;28;45301;-74
2022/09/23 11:33:01;;;;;;;2.35;1.67;;;19.90;48.60;;;;;;5046970;28;45175;-74
2022/09/23 11:35:29;;;;;;;2.25;1.52;;;19.90;48.50;;;;;;5020445;28;45580;-73
2022/09/23 11:37:57;;;;;;;2.78;1.67;;;20.00;48.40;;;;;;5065575;28;45167;-73
2022/09/23 11:40:27;;;;;;;1.50;1.40;;;20.00;48.40;;;;;;5063597;28;45258;-74
2022/09/23 11:42:58;;;;;;;3.22;1.80;;;20.10;48.80;;;;;;5066778;28;45199;-73
2022/09/23 11:45:26;;;;;;;2.45;1.67;;;20.10;48.30;;;;;;5065777;28;45299;-73
2022/09/23 11:47:54;;;;;;;1.50;1.40;;;20.20;48.40;;;;;;5066898;28;46389;-73
2022/09/23 11:50:24;;;;;;;1.80;1.58;;;20.20;48.40;;;;;;5065854;28;45155;-74
2022/09/23 11:52:57;;;;;;;1.60;1.42;;;20.30;48.30;;;;;;5065517;28;45340;-74
2022/09/23 11:55:26;;;;;;;1.35;1.25;;;20.30;48.30;;;;;;5064954;28;45563;-74
2022/09/23 11:57:55;;;;;;;1.73;1.63;;;20.40;48.40;;;;;;5059420;28;46617;-74
2022/09/23 12:00:22;;;;;;;5.53;1.80;;;20.40;48.40;;;;;;5066987;28;45135;-73
2022/09/23 12:02:59;;;;;;;2.28;1.58;;;20.50;48.40;;;;;;5066874;28;45326;-74
2022/09/23 12:05:27;;;;;;;1.77;1.33;;;20.50;48.50;;;;;;5066935;28;45578;-75
2022/09/23 12:07:56;;;;;;;2.05;1.38;;;20.50;48.40;;;;;;5066602;28;46279;-75
2022/09/23 12:10:22;;;;;;;2.05;1.40;;;20.60;48.40;;;;;;5066369;28;45528;-73
2022/09/23 12:12:53;;;;;;;2.28;1.70;;;20.70;48.40;;;;;;5066543;28;45289;-74
2022/09/23 12:15:36;;;;;;;2.38;1.50;;;20.70;48.30;;;;;;5067138;28;45139;-75
2022/09/23 12:18:22;;;;;;;1.58;1.40;;;20.70;48.20;;;;;;5066547;28;45400;-73
2022/09/23 12:20:59;;;;;;;1.50;1.40;;;20.80;48.40;;;;;;5066589;28;45225;-73
2022/09/23 12:23:50;;;;;;;1.73;1.23;;;20.80;48.40;;;;;;5066641;28;45135;-73
2022/09/23 12:26:18;;;;;;;1.60;1.50;;;20.80;48.30;;;;;;5061695;28;45256;-74
2022/09/23 12:28:45;;;;;;;1.73;1.55;;;20.90;48.30;;;;;;5066331;28;46275;-73
2022/09/23 12:31:15;;;;;;;2.67;1.52;;;20.90;48.20;;;;;;5066335;28;45210;-73
2022/09/23 12:33:48;;;;;;;1.50;1.40;;;20.90;48.30;;;;;;5066371;28;45375;-75
2022/09/23 12:36:15;;;;;;;1.63;1.52;;;21.00;48.40;;;;;;5066246;28;45330;-73
2022/09/23 12:38:47;;;;;;;3.50;2.00;;;21.00;48.60;;;;;;5065809;28;45394;-75
2022/09/23 12:41:24;;;;;;;1.55;1.45;;;21.10;48.40;;;;;;5065313;28;45317;-74
2022/09/23 12:43:54;;;;;;;1.77;1.20;;;21.20;47.90;;;;;;5066047;28;45345;-74
2022/09/23 12:46:24;;;;;;;2.55;1.50;;;21.20;47.60;;;;;;5066159;28;45472;-74
2022/09/23 12:49:05;;;;;;;2.55;1.40;;;21.30;47.50;;;;;;5065526;28;46503;-74
2022/09/23 12:51:33;;;;;;;1.85;1.63;;;21.30;47.50;;;;;;5065896;28;45245;-74
2022/09/23 12:54:20;;;;;;;2.03;1.83;;;21.40;48.10;;;;;;5065624;28;45448;-74
2022/09/23 12:57:05;;;;;;;1.48;1.38;;;21.40;48.20;;;;;;5065736;28;45489;-74
2022/09/23 12:59:48;;;;;;;1.77;1.60;;;21.50;48.30;;;;;;5065551;28;46639;-74
2022/09/23 13:02:33;;;;;;;1.48;1.35;;;21.50;48.60;;;;;;5063840;28;45406;-74
2022/09/23 13:07:58;;;;;;;2.53;1.88;;;21.60;48.40;;;;;;5066185;28;45362;-73
2022/09/23 13:10:27;;;;;;;1.77;1.60;;;21.60;48.30;;;;;;5071869;28;45197;-73